createdAt,value
2022-12-11T00:00:22.177Z,25.30
2022-12-11T00:02:49.435Z,24.90
2022-12-11T00:05:16.427Z,24.07
2022-12-11T00:07:43.432Z,22.93
2022-12-11T00:10:10.282Z,23.37
2022-12-11T00:12:37.128Z,23.47
2022-12-11T00:15:04.236Z,24.80
2022-12-11T00:17:31.053Z,25.20
2022-12-11T00:19:57.898Z,25.83
2022-12-11T00:22:24.732Z,27.67
2022-12-11T00:24:51.937Z,25.30
2022-12-11T00:27:18.743Z,25.07
2022-12-11T00:29:45.664Z,27.07
2022-12-11T00:32:12.548Z,24.40
2022-12-11T00:34:40.568Z,25.77
2022-12-11T00:37:07.464Z,26.57
2022-12-11T00:39:34.257Z,26.13
2022-12-11T00:42:01.042Z,25.00
2022-12-11T00:44:28.011Z,27.07
2022-12-11T00:46:54.803Z,23.63
2022-12-11T00:49:21.650Z,26.30
2022-12-11T00:51:48.467Z,25.83
2022-12-11T00:54:15.326Z,26.00
2022-12-11T00:56:42.798Z,26.23
2022-12-11T00:59:09.926Z,26.93
2022-12-11T01:01:36.741Z,25.87
2022-12-11T01:04:03.586Z,26.70
2022-12-11T01:06:30.511Z,26.60
2022-12-11T01:09:16.129Z,25.57
2022-12-11T01:11:43.422Z,27.90
2022-12-11T01:14:11.513Z,25.63
2022-12-11T01:16:38.634Z,27.57
2022-12-11T01:19:05.439Z,27.33
2022-12-11T01:21:32.355Z,26.00
2022-12-11T01:23:59.227Z,25.53
2022-12-11T01:26:26.072Z,25.63
2022-12-11T01:28:52.926Z,27.83
2022-12-11T01:31:21.067Z,29.10
2022-12-11T01:33:48.160Z,25.77
2022-12-11T01:36:20.623Z,25.67
2022-12-11T01:38:48.873Z,25.73
2022-12-11T01:41:17.573Z,27.00
2022-12-11T01:44:06.783Z,26.97
2022-12-11T01:46:36.185Z,24.93
2022-12-11T01:49:07.316Z,26.63
2022-12-11T01:51:39.714Z,26.00
2022-12-11T01:54:10.953Z,24.60
2022-12-11T01:56:39.786Z,26.83
2022-12-11T01:59:09.467Z,25.23
2022-12-11T02:01:54.236Z,25.53
2022-12-11T02:04:21.385Z,24.87
2022-12-11T02:06:50.372Z,25.57
2022-12-11T02:09:22.092Z,24.27
2022-12-11T02:12:10.414Z,24.83
2022-12-11T02:14:51.234Z,23.87
2022-12-11T02:17:23.585Z,22.53
2022-12-11T02:19:58.302Z,22.30
2022-12-11T02:22:47.122Z,23.33
2022-12-11T02:25:40.537Z,24.33
2022-12-11T02:28:25.505Z,21.67
2022-12-11T02:30:59.230Z,23.27
2022-12-11T02:33:43.973Z,22.07
2022-12-11T02:36:13.202Z,23.50
2022-12-11T02:38:43.147Z,22.03
2022-12-11T02:41:12.105Z,21.93
2022-12-11T02:43:40.415Z,23.03
2022-12-11T02:46:08.292Z,23.00
2022-12-11T02:48:37.150Z,21.97
2022-12-11T02:51:06.698Z,22.73
2022-12-11T02:53:37.576Z,22.27
2022-12-11T02:56:12.619Z,22.57
2022-12-11T02:58:48.009Z,21.93
2022-12-11T03:01:15.120Z,22.90
2022-12-11T03:03:42.269Z,23.30
2022-12-11T03:06:14.048Z,22.40
2022-12-11T03:08:40.843Z,22.60
2022-12-11T03:11:11.833Z,21.97
2022-12-11T03:13:42.145Z,21.03
2022-12-11T03:16:35.232Z,21.27
2022-12-11T03:19:36.036Z,20.87
2022-12-11T03:22:15.630Z,21.77
2022-12-11T03:24:58.408Z,20.70
2022-12-11T03:27:45.046Z,20.97
2022-12-11T03:30:18.358Z,19.53
2022-12-11T03:33:08.520Z,20.37
2022-12-11T03:35:41.602Z,21.97
2022-12-11T03:38:34.201Z,18.90
2022-12-11T03:41:03.970Z,19.73
2022-12-11T03:43:32.252Z,20.23
2022-12-11T03:46:00.601Z,18.27
2022-12-11T03:48:35.947Z,18.93
2022-12-11T03:51:06.672Z,19.27
2022-12-11T03:53:35.418Z,21.50
2022-12-11T03:56:05.371Z,21.27
2022-12-11T03:58:32.485Z,20.13
2022-12-11T04:00:59.468Z,21.70
2022-12-11T04:03:26.400Z,19.77
2022-12-11T04:05:55.529Z,20.03
2022-12-11T04:08:23.389Z,20.23
2022-12-11T04:11:11.078Z,21.07
2022-12-11T04:13:38.894Z,21.10
2022-12-11T04:16:06.333Z,21.67
2022-12-11T04:18:51.755Z,20.97
2022-12-11T04:21:39.645Z,20.30
2022-12-11T04:24:16.471Z,19.33
2022-12-11T04:26:47.470Z,21.93
2022-12-11T04:29:15.480Z,19.43
2022-12-11T04:31:42.318Z,21.27
2022-12-11T04:34:09.307Z,19.37
2022-12-11T04:36:36.182Z,20.17
2022-12-11T04:39:05.248Z,19.87
2022-12-11T04:41:32.196Z,22.00
2022-12-11T04:43:59.029Z,18.73
2022-12-11T04:46:26.071Z,20.60
2022-12-11T04:48:57.255Z,19.47
2022-12-11T04:51:25.141Z,18.63
2022-12-11T04:53:52.139Z,16.67
2022-12-11T04:56:19.066Z,16.77
2022-12-11T04:58:48.346Z,18.33
2022-12-11T05:01:20.912Z,18.73
2022-12-11T05:03:48.332Z,17.73
2022-12-11T05:06:15.506Z,16.80
2022-12-11T05:08:43.290Z,17.70
2022-12-11T05:11:12.345Z,17.00
2022-12-11T05:13:39.833Z,17.50
2022-12-11T05:16:11.036Z,17.63
2022-12-11T05:18:38.308Z,17.07
2022-12-11T05:21:08.334Z,16.83
2022-12-11T05:23:35.186Z,16.60
2022-12-11T05:26:06.222Z,18.47
2022-12-11T05:28:35.903Z,16.73
2022-12-11T05:31:09.091Z,18.20
2022-12-11T05:33:36.149Z,20.27
2022-12-11T05:36:03.860Z,17.70
2022-12-11T05:38:30.896Z,19.43
2022-12-11T05:40:59.592Z,18.03
2022-12-11T05:43:28.425Z,17.53
2022-12-11T05:45:55.635Z,17.83
2022-12-11T05:48:22.544Z,19.60
2022-12-11T05:50:59.701Z,19.00
2022-12-11T05:53:26.981Z,18.87
2022-12-11T05:55:53.915Z,18.87
2022-12-11T05:58:21.520Z,19.10
2022-12-11T06:00:48.678Z,18.47
2022-12-11T06:03:15.985Z,18.90
2022-12-11T06:05:43.492Z,17.07
2022-12-11T06:08:10.480Z,19.53
2022-12-11T06:10:37.364Z,16.93
2022-12-11T06:13:04.435Z,18.57
2022-12-11T06:15:32.264Z,18.13
2022-12-11T06:17:59.035Z,17.87
2022-12-11T06:20:25.839Z,16.63
2022-12-11T06:22:52.615Z,18.53
2022-12-11T06:25:19.349Z,17.40
2022-12-11T06:27:46.132Z,17.27
2022-12-11T06:30:13.310Z,17.43
2022-12-11T06:32:40.127Z,17.83
2022-12-11T06:35:07.138Z,17.33
2022-12-11T06:37:35.853Z,17.50
2022-12-11T06:40:04.125Z,17.47
2022-12-11T06:42:31.620Z,16.97
2022-12-11T06:44:59.812Z,18.13
2022-12-11T06:47:27.948Z,17.67
2022-12-11T06:49:55.181Z,18.03
2022-12-11T06:52:23.171Z,18.17
2022-12-11T06:54:50.153Z,19.27
2022-12-11T06:57:17.610Z,19.60
2022-12-11T06:59:44.434Z,18.60
2022-12-11T07:02:16.244Z,19.77
2022-12-11T07:04:43.552Z,19.73
2022-12-11T07:07:11.303Z,23.43
2022-12-11T07:09:40.102Z,22.30
2022-12-11T07:12:07.329Z,23.07
2022-12-11T07:14:34.361Z,23.40
2022-12-11T07:17:01.199Z,20.77
2022-12-11T07:19:28.048Z,19.50
2022-12-11T07:21:54.867Z,21.03
2022-12-11T07:24:22.069Z,20.10
2022-12-11T07:26:48.917Z,21.03
2022-12-11T07:29:15.700Z,20.53
2022-12-11T07:31:42.671Z,22.07
2022-12-11T07:34:12.960Z,19.70
2022-12-11T07:36:40.326Z,21.30
2022-12-11T07:39:09.026Z,20.63
2022-12-11T07:41:35.884Z,20.50
2022-12-11T07:44:03.547Z,24.10
2022-12-11T07:46:32.998Z,25.30
2022-12-11T07:49:03.447Z,26.63
2022-12-11T07:51:32.939Z,25.73
2022-12-11T07:54:10.684Z,30.17
2022-12-11T07:56:37.502Z,28.40
2022-12-11T07:59:05.950Z,29.33
2022-12-11T08:01:36.587Z,26.20
2022-12-11T08:04:09.815Z,24.43
2022-12-11T08:06:38.594Z,24.90
2022-12-11T08:09:07.956Z,24.03
2022-12-11T08:11:35.312Z,22.60
2022-12-11T08:14:02.665Z,22.13
2022-12-11T08:16:29.874Z,23.10
2022-12-11T08:18:57.669Z,23.13
2022-12-11T08:21:26.704Z,21.60
2022-12-11T08:23:57.943Z,22.83
2022-12-11T08:26:27.526Z,22.17
2022-12-11T08:28:54.497Z,23.60
2022-12-11T08:31:21.703Z,23.23
2022-12-11T08:33:49.531Z,23.83
2022-12-11T08:36:19.706Z,29.43
2022-12-11T08:38:47.086Z,39.73
2022-12-11T08:41:17.110Z,29.87
2022-12-11T08:43:44.274Z,33.63
2022-12-11T08:46:12.362Z,27.33
2022-12-11T08:48:40.425Z,27.90
2022-12-11T08:51:10.868Z,27.87
2022-12-11T08:53:38.944Z,26.97
2022-12-11T08:56:14.879Z,24.37
2022-12-11T08:58:42.242Z,24.47
2022-12-11T09:01:13.238Z,40.43
2022-12-11T09:03:40.780Z,57.73
2022-12-11T09:06:13.046Z,57.53
2022-12-11T09:08:40.617Z,51.10
2022-12-11T09:11:13.171Z,40.93
2022-12-11T09:13:40.699Z,38.67
2022-12-11T09:16:16.316Z,48.63
2022-12-11T09:18:46.166Z,43.30
2022-12-11T09:21:15.017Z,35.83
2022-12-11T09:23:41.996Z,30.80
2022-12-11T09:26:12.375Z,28.87
2022-12-11T09:28:45.787Z,39.30
2022-12-11T09:31:19.109Z,37.70
2022-12-11T09:33:46.517Z,34.90
2022-12-11T09:36:13.385Z,36.10
2022-12-11T09:38:40.269Z,37.37
2022-12-11T09:41:22.388Z,38.50
2022-12-11T09:43:59.463Z,36.10
2022-12-11T09:46:33.587Z,40.90
2022-12-11T09:49:09.885Z,36.70
2022-12-11T09:51:49.497Z,34.60
2022-12-11T09:54:16.273Z,31.83
2022-12-11T09:56:50.142Z,31.83
2022-12-11T09:59:19.776Z,32.23
2022-12-11T10:01:50.855Z,30.43
2022-12-11T10:04:29.657Z,31.40
2022-12-11T10:07:13.421Z,34.47
2022-12-11T10:09:43.131Z,30.77
2022-12-11T10:12:31.558Z,26.63
2022-12-11T10:15:35.236Z,29.17
2022-12-11T10:18:05.284Z,28.63
2022-12-11T10:20:39.277Z,30.47
2022-12-11T10:23:08.968Z,50.93
2022-12-11T10:25:58.610Z,40.17
2022-12-11T10:28:27.949Z,41.53
2022-12-11T10:31:10.967Z,62.90
2022-12-11T10:34:01.252Z,101.83
2022-12-11T10:36:31.497Z,56.90
2022-12-11T10:39:02.903Z,50.60
2022-12-11T10:41:39.048Z,64.40
2022-12-11T10:44:35.268Z,53.07
2022-12-11T10:47:06.485Z,37.43
2022-12-11T10:49:35.273Z,34.73
2022-12-11T10:52:09.335Z,34.23
2022-12-11T10:54:39.381Z,33.03
2022-12-11T10:57:08.939Z,33.47
2022-12-11T10:59:54.801Z,31.93
2022-12-11T11:02:41.310Z,29.83
2022-12-11T11:05:35.530Z,28.50
2022-12-11T11:08:15.345Z,26.07
2022-12-11T11:10:54.644Z,24.70
2022-12-11T11:13:24.186Z,22.43
2022-12-11T11:16:06.684Z,23.13
2022-12-11T11:18:34.421Z,24.17
2022-12-11T11:21:02.416Z,29.67
2022-12-11T11:23:29.570Z,29.10
2022-12-11T11:25:59.459Z,28.50
2022-12-11T11:28:30.619Z,27.00
2022-12-11T11:31:02.191Z,25.93
2022-12-11T11:33:30.996Z,25.43
2022-12-11T11:36:22.684Z,26.83
2022-12-11T11:39:02.629Z,24.47
2022-12-11T11:41:31.727Z,23.33
2022-12-11T11:44:02.410Z,23.03
2022-12-11T11:46:44.153Z,23.73
2022-12-11T11:49:19.077Z,23.07
2022-12-11T11:51:51.455Z,20.83
2022-12-11T11:54:21.341Z,21.77
2022-12-11T11:56:54.088Z,18.57
2022-12-11T11:59:32.175Z,21.73
2022-12-11T12:01:59.648Z,20.33
2022-12-11T12:04:35.025Z,21.73
2022-12-11T12:07:07.729Z,18.70
2022-12-11T12:09:54.171Z,22.63
2022-12-11T12:12:55.389Z,20.27
2022-12-11T12:15:27.755Z,19.80
2022-12-11T12:18:25.128Z,21.60
2022-12-11T12:21:03.619Z,21.70
2022-12-11T12:23:36.306Z,22.10
2022-12-11T12:26:13.944Z,21.60
2022-12-11T12:28:51.987Z,23.80
2022-12-11T12:31:48.527Z,25.20
2022-12-11T12:34:39.818Z,27.40
2022-12-11T12:37:13.541Z,25.53
2022-12-11T12:39:52.558Z,25.83
2022-12-11T12:42:42.862Z,27.80
2022-12-11T12:45:15.684Z,35.37
2022-12-11T12:47:46.740Z,31.80
2022-12-11T12:50:26.717Z,31.63
2022-12-11T12:52:55.251Z,33.23
2022-12-11T12:55:31.799Z,35.80
2022-12-11T12:58:00.939Z,32.23
2022-12-11T13:00:33.659Z,33.30
2022-12-11T13:03:29.181Z,29.90
2022-12-11T13:05:59.137Z,27.63
2022-12-11T13:08:47.469Z,26.03
2022-12-11T13:11:18.201Z,26.77
2022-12-11T13:14:01.018Z,27.27
2022-12-11T13:16:40.191Z,28.20
2022-12-11T13:19:27.081Z,31.87
2022-12-11T13:22:12.411Z,34.20
2022-12-11T13:24:59.589Z,33.40
2022-12-11T13:27:42.781Z,31.50
2022-12-11T13:30:15.631Z,33.70
2022-12-11T13:32:54.773Z,33.43
2022-12-11T13:35:21.656Z,34.50
2022-12-11T13:37:52.043Z,36.53
2022-12-11T13:40:25.614Z,28.60
2022-12-11T13:43:00.640Z,30.73
2022-12-11T13:45:29.672Z,28.93
2022-12-11T13:47:58.296Z,26.47
2022-12-11T13:50:32.158Z,23.53
2022-12-11T13:53:01.857Z,28.10
2022-12-11T13:55:35.924Z,30.97
2022-12-11T13:58:02.717Z,30.57
2022-12-11T14:00:32.981Z,33.83
2022-12-11T14:03:04.816Z,33.70
2022-12-11T14:05:31.910Z,35.60
2022-12-11T14:08:03.911Z,35.10
2022-12-11T14:10:32.705Z,26.87
2022-12-11T14:12:59.514Z,29.93
2022-12-11T14:15:28.118Z,27.37
2022-12-11T14:17:55.883Z,28.63
2022-12-11T14:20:25.913Z,30.53
2022-12-11T14:22:52.741Z,28.47
2022-12-11T14:25:25.889Z,28.23
2022-12-11T14:27:56.902Z,26.83
2022-12-11T14:30:31.577Z,27.17
2022-12-11T14:33:04.934Z,27.03
2022-12-11T14:35:40.129Z,26.73
2022-12-11T14:38:24.306Z,25.57
2022-12-11T14:40:56.451Z,24.23
2022-12-11T14:43:35.953Z,25.33
2022-12-11T14:46:10.824Z,23.60
2022-12-11T14:48:46.817Z,25.27
2022-12-11T14:51:17.740Z,26.00
2022-12-11T14:53:48.721Z,27.43
2022-12-11T14:56:25.647Z,27.53
2022-12-11T14:59:02.584Z,35.37
2022-12-11T15:01:32.745Z,37.57
2022-12-11T15:04:24.557Z,40.33
2022-12-11T15:06:52.193Z,52.07
2022-12-11T15:09:26.698Z,56.47
2022-12-11T15:11:56.999Z,59.57
2022-12-11T15:14:25.189Z,59.20
2022-12-11T15:16:54.718Z,53.47
2022-12-11T15:19:29.860Z,48.03
2022-12-11T15:22:05.590Z,45.13
2022-12-11T15:24:40.030Z,47.13
2022-12-11T15:27:23.881Z,57.23
2022-12-11T15:29:50.708Z,54.80
2022-12-11T15:32:19.845Z,46.03
2022-12-11T15:34:55.919Z,47.50
2022-12-11T15:37:32.031Z,93.57
2022-12-11T15:40:04.585Z,57.00
2022-12-11T15:42:36.726Z,54.10
2022-12-11T15:45:06.868Z,66.47
2022-12-11T15:47:33.686Z,58.33
2022-12-11T15:50:07.629Z,54.90
2022-12-11T15:52:34.651Z,47.07
2022-12-11T15:55:01.471Z,46.00
2022-12-11T15:57:28.467Z,45.83
2022-12-11T15:59:56.089Z,49.17
2022-12-11T16:02:24.389Z,39.67
2022-12-11T16:04:51.212Z,35.17
2022-12-11T16:07:26.277Z,33.07
2022-12-11T16:09:53.701Z,34.23
2022-12-11T16:12:20.558Z,33.20
2022-12-11T16:14:47.437Z,31.47
2022-12-11T16:17:15.497Z,30.43
2022-12-11T16:19:43.239Z,27.30
2022-12-11T16:22:11.623Z,28.77
2022-12-11T16:24:39.571Z,27.60
2022-12-11T16:27:07.520Z,30.63
2022-12-11T16:29:38.737Z,30.03
2022-12-11T16:32:08.183Z,30.63
2022-12-11T16:34:36.401Z,27.87
2022-12-11T16:37:04.342Z,29.57
2022-12-11T16:39:31.225Z,28.97
2022-12-11T16:41:58.161Z,30.27
2022-12-11T16:44:27.417Z,29.17
2022-12-11T16:46:54.828Z,28.73
2022-12-11T16:49:22.334Z,28.33
2022-12-11T16:51:49.688Z,28.20
2022-12-11T16:54:17.345Z,26.60
2022-12-11T16:56:44.764Z,25.40
2022-12-11T16:59:12.851Z,26.73
2022-12-11T17:01:40.021Z,26.43
2022-12-11T17:04:07.033Z,28.07
2022-12-11T17:06:33.955Z,26.70
2022-12-11T17:09:00.835Z,25.83
2022-12-11T17:11:27.826Z,28.73
2022-12-11T17:13:56.628Z,30.30
2022-12-11T17:16:26.078Z,26.03
2022-12-11T17:18:53.541Z,25.57
2022-12-11T17:21:22.300Z,25.37
2022-12-11T17:23:50.484Z,24.40
2022-12-11T17:26:18.298Z,27.30
2022-12-11T17:28:45.256Z,23.97
2022-12-11T17:31:18.254Z,24.63
2022-12-11T17:33:46.170Z,21.30
2022-12-11T17:36:15.517Z,25.13
2022-12-11T17:38:42.438Z,27.53
2022-12-11T17:41:15.497Z,26.73
2022-12-11T17:43:48.166Z,24.90
2022-12-11T17:46:15.077Z,25.10
2022-12-11T17:48:43.051Z,23.40
2022-12-11T17:51:13.162Z,21.90
2022-12-11T17:53:40.302Z,25.93
2022-12-11T17:56:08.430Z,23.43
2022-12-11T17:58:35.644Z,20.97
2022-12-11T18:01:07.897Z,22.77
2022-12-11T18:03:35.299Z,20.07
2022-12-11T18:06:14.373Z,23.50
2022-12-11T18:08:42.007Z,23.83
2022-12-11T18:11:15.298Z,19.77
2022-12-11T18:13:43.718Z,21.60
2022-12-11T18:16:26.082Z,23.13
2022-12-11T18:18:53.543Z,21.70
2022-12-11T18:21:24.273Z,21.37
2022-12-11T18:23:51.517Z,20.47
2022-12-11T18:26:19.359Z,21.43
2022-12-11T18:28:46.931Z,21.53
2022-12-11T18:31:14.223Z,22.43
2022-12-11T18:33:43.280Z,21.87
2022-12-11T18:36:11.570Z,22.37
2022-12-11T18:38:38.797Z,24.60
2022-12-11T18:41:08.084Z,22.57
2022-12-11T18:43:36.940Z,22.40
2022-12-11T18:46:10.710Z,22.13
2022-12-11T18:48:37.753Z,21.23
2022-12-11T18:51:09.926Z,23.07
2022-12-11T18:53:39.223Z,20.50
2022-12-11T18:56:15.957Z,20.20
2022-12-11T18:58:43.462Z,22.77
2022-12-11T19:01:16.110Z,20.87
2022-12-11T19:03:43.987Z,20.53
2022-12-11T19:06:14.329Z,21.70
2022-12-11T19:08:41.544Z,23.27
2022-12-11T19:11:09.045Z,22.47
2022-12-11T19:13:36.260Z,21.07
2022-12-11T19:16:03.303Z,22.00
2022-12-11T19:18:30.229Z,22.20
2022-12-11T19:21:08.048Z,20.93
2022-12-11T19:23:36.445Z,22.23
2022-12-11T19:26:03.524Z,22.97
2022-12-11T19:28:31.099Z,25.80
2022-12-11T19:30:57.976Z,23.30
2022-12-11T19:33:24.844Z,27.93
2022-12-11T19:36:01.230Z,26.90
2022-12-11T19:38:28.037Z,24.67
2022-12-11T19:40:54.856Z,24.60
2022-12-11T19:43:21.657Z,25.47
2022-12-11T19:45:48.649Z,24.60
2022-12-11T19:48:15.481Z,23.77
2022-12-11T19:50:42.270Z,20.63
2022-12-11T19:53:09.053Z,21.87
2022-12-11T19:55:35.807Z,22.33
2022-12-11T19:58:02.622Z,21.87
2022-12-11T20:00:29.455Z,25.43
2022-12-11T20:02:56.337Z,25.10
2022-12-11T20:05:23.184Z,24.37
2022-12-11T20:07:50.046Z,24.30
2022-12-11T20:10:16.992Z,25.57
2022-12-11T20:12:43.820Z,24.93
2022-12-11T20:15:11.594Z,26.93
2022-12-11T20:17:43.236Z,25.10
2022-12-11T20:20:10.870Z,25.70
2022-12-11T20:22:37.784Z,27.10
2022-12-11T20:25:04.918Z,26.13
2022-12-11T20:27:31.900Z,28.67
2022-12-11T20:29:58.727Z,24.83
2022-12-11T20:32:25.736Z,26.60
2022-12-11T20:34:56.378Z,27.80
2022-12-11T20:37:25.997Z,25.30
2022-12-11T20:39:53.493Z,24.87
2022-12-11T20:42:20.719Z,24.27
2022-12-11T20:44:49.341Z,23.67
2022-12-11T20:47:19.588Z,25.73
2022-12-11T20:49:47.775Z,23.87
2022-12-11T20:52:14.764Z,24.43
2022-12-11T20:54:41.658Z,26.53
2022-12-11T20:57:08.504Z,22.93
2022-12-11T20:59:35.352Z,22.13
2022-12-11T21:02:02.259Z,25.03
2022-12-11T21:04:29.198Z,24.70
2022-12-11T21:06:56.197Z,22.87
2022-12-11T21:09:25.756Z,25.00
2022-12-11T21:11:52.998Z,21.37
2022-12-11T21:14:20.028Z,23.73
2022-12-11T21:16:47.428Z,26.47
2022-12-11T21:19:17.435Z,25.97
2022-12-11T21:21:45.310Z,25.77
2022-12-11T21:24:26.484Z,30.13
2022-12-11T21:26:55.939Z,29.47
2022-12-11T21:29:24.566Z,27.73
2022-12-11T21:31:51.795Z,33.47
2022-12-11T21:34:25.068Z,31.33
2022-12-11T21:36:56.557Z,27.13
2022-12-11T21:39:25.391Z,29.50
2022-12-11T21:41:52.879Z,28.27
2022-12-11T21:47:06.562Z,27.00
2022-12-11T21:49:33.463Z,28.47
2022-12-11T21:52:00.400Z,27.57
2022-12-11T21:54:27.269Z,26.23
2022-12-11T21:56:54.641Z,24.67
2022-12-11T21:59:21.619Z,25.47
2022-12-11T22:01:48.478Z,27.23
2022-12-11T22:04:15.847Z,26.97
2022-12-11T22:06:43.663Z,26.97
2022-12-11T22:09:12.451Z,24.80
2022-12-11T22:11:40.197Z,23.97
2022-12-11T22:14:07.496Z,25.27
2022-12-11T22:16:35.154Z,25.20
2022-12-11T22:19:02.075Z,26.73
2022-12-11T22:21:29.356Z,28.73
2022-12-11T22:23:56.210Z,25.30
2022-12-11T22:26:25.481Z,25.20
2022-12-11T22:28:52.956Z,23.73
2022-12-11T22:31:22.577Z,25.30
2022-12-11T22:33:51.237Z,25.83
2022-12-11T22:36:18.953Z,27.00
2022-12-11T22:38:46.397Z,27.27
2022-12-11T22:41:28.528Z,25.57
2022-12-11T22:43:56.953Z,28.20
2022-12-11T22:46:26.750Z,25.40
2022-12-11T22:48:53.691Z,27.60
2022-12-11T22:51:21.386Z,25.10
2022-12-11T22:53:48.246Z,25.73
2022-12-11T22:56:15.037Z,24.43
2022-12-11T22:58:42.357Z,25.20
2022-12-11T23:01:11.958Z,24.17
2022-12-11T23:03:39.096Z,23.10
2022-12-11T23:06:08.808Z,22.73
2022-12-11T23:08:36.219Z,20.83
2022-12-11T23:11:09.920Z,19.73
2022-12-11T23:13:36.726Z,21.47
2022-12-11T23:16:03.835Z,21.23
2022-12-11T23:18:30.624Z,22.33
2022-12-11T23:20:57.480Z,20.50
2022-12-11T23:23:24.863Z,21.30
2022-12-11T23:25:51.751Z,18.53
2022-12-11T23:28:19.759Z,18.87
2022-12-11T23:30:47.049Z,19.90
2022-12-11T23:33:14.121Z,20.47
2022-12-11T23:35:40.906Z,19.00
2022-12-11T23:38:08.241Z,18.03
2022-12-11T23:40:35.220Z,17.47
2022-12-11T23:43:02.051Z,18.03
2022-12-11T23:45:28.841Z,17.03
2022-12-11T23:47:55.969Z,18.07
2022-12-11T23:50:25.508Z,18.13
2022-12-11T23:52:52.615Z,19.10
2022-12-11T23:55:19.582Z,19.47
2022-12-11T23:57:46.414Z,20.00
